createdAt,value
2023-02-06T00:00:23.726Z,0.00
2023-02-06T00:01:24.083Z,0.00
2023-02-06T00:02:24.415Z,0.00
2023-02-06T00:03:24.799Z,0.00
2023-02-06T00:04:25.145Z,0.00
2023-02-06T00:05:25.512Z,0.00
2023-02-06T00:06:25.834Z,0.00
2023-02-06T00:07:26.164Z,0.00
2023-02-06T00:08:26.524Z,0.00
2023-02-06T00:09:26.857Z,0.00
2023-02-06T00:10:27.218Z,0.00
2023-02-06T00:11:27.585Z,0.00
2023-02-06T00:12:27.897Z,0.00
2023-02-06T00:13:28.228Z,0.00
2023-02-06T00:14:28.564Z,0.00
2023-02-06T00:15:28.953Z,0.00
2023-02-06T00:16:29.275Z,0.00
2023-02-06T00:17:29.615Z,0.00
2023-02-06T00:18:29.930Z,0.00
2023-02-06T00:19:30.267Z,0.00
2023-02-06T00:20:30.664Z,0.00
2023-02-06T00:21:30.962Z,0.00
2023-02-06T00:22:31.296Z,0.00
2023-02-06T00:23:31.642Z,0.00
2023-02-06T00:24:32.011Z,0.00
2023-02-06T00:25:32.362Z,0.00
2023-02-06T00:26:32.725Z,0.00
2023-02-06T00:27:33.066Z,0.00
2023-02-06T00:28:33.398Z,0.00
2023-02-06T00:29:33.738Z,0.00
2023-02-06T00:30:34.285Z,0.00
2023-02-06T00:31:34.496Z,0.00
2023-02-06T00:32:34.835Z,0.00
2023-02-06T00:33:35.141Z,0.00
2023-02-06T00:34:35.490Z,0.00
2023-02-06T00:35:36.227Z,0.00
2023-02-06T00:36:36.202Z,0.00
2023-02-06T00:37:36.551Z,0.00
2023-02-06T00:38:36.917Z,0.00
2023-02-06T00:39:37.237Z,0.00
2023-02-06T00:40:37.663Z,0.00
2023-02-06T00:41:37.920Z,0.00
2023-02-06T00:42:38.254Z,0.00
2023-02-06T00:43:38.591Z,0.00
2023-02-06T00:44:38.920Z,0.00
2023-02-06T00:45:39.314Z,0.00
2023-02-06T00:46:39.664Z,0.00
2023-02-06T00:47:40.014Z,0.00
2023-02-06T00:48:40.308Z,0.00
2023-02-06T00:49:40.687Z,0.00
2023-02-06T00:50:41.039Z,0.00
2023-02-06T00:51:41.374Z,0.00
2023-02-06T00:52:41.712Z,0.00
2023-02-06T00:53:42.088Z,0.00
2023-02-06T00:54:42.439Z,0.00
2023-02-06T00:55:42.777Z,0.00
2023-02-06T00:56:43.107Z,0.00
2023-02-06T00:57:43.485Z,0.00
2023-02-06T00:58:43.825Z,0.00
2023-02-06T00:59:44.160Z,0.00
2023-02-06T01:00:44.555Z,0.00
2023-02-06T01:01:45.005Z,0.00
2023-02-06T01:02:45.319Z,0.00
2023-02-06T01:03:45.619Z,0.00
2023-02-06T01:04:45.960Z,0.00
2023-02-06T01:05:46.315Z,0.00
2023-02-06T01:06:46.679Z,0.00
2023-02-06T01:07:47.008Z,0.00
2023-02-06T01:08:47.360Z,0.00
2023-02-06T01:09:47.687Z,0.00
2023-02-06T01:10:48.034Z,0.00
2023-02-06T01:11:48.360Z,0.00
2023-02-06T01:12:48.696Z,0.00
2023-02-06T01:13:49.037Z,0.00
2023-02-06T01:14:49.369Z,0.00
2023-02-06T01:15:51.194Z,0.00
2023-02-06T01:16:50.054Z,0.00
2023-02-06T01:17:50.392Z,0.00
2023-02-06T01:18:50.770Z,0.00
2023-02-06T01:19:51.104Z,0.00
2023-02-06T01:20:51.468Z,0.00
2023-02-06T01:21:51.795Z,0.00
2023-02-06T01:22:52.148Z,0.00
2023-02-06T01:23:52.487Z,0.00
2023-02-06T01:24:52.824Z,0.00
2023-02-06T01:25:53.189Z,0.00
2023-02-06T01:26:53.543Z,0.00
2023-02-06T01:27:53.896Z,0.00
2023-02-06T01:28:54.194Z,0.00
2023-02-06T01:29:54.538Z,0.00
2023-02-06T01:30:54.961Z,0.00
2023-02-06T01:31:55.214Z,0.00
2023-02-06T01:32:55.555Z,0.00
2023-02-06T01:33:55.897Z,0.00
2023-02-06T01:34:56.252Z,0.00
2023-02-06T01:35:56.658Z,0.00
2023-02-06T01:36:56.943Z,0.00
2023-02-06T01:37:57.320Z,0.00
2023-02-06T01:38:57.655Z,0.00
2023-02-06T01:39:57.989Z,0.00
2023-02-06T01:40:58.370Z,0.00
2023-02-06T01:41:58.688Z,0.00
2023-02-06T01:42:59.058Z,0.00
2023-02-06T01:43:59.408Z,0.00
2023-02-06T01:44:59.760Z,0.00
2023-02-06T01:46:00.143Z,0.00
2023-02-06T01:47:00.525Z,0.00
2023-02-06T01:48:00.892Z,0.00
2023-02-06T01:49:01.208Z,0.00
2023-02-06T01:50:01.614Z,0.00
2023-02-06T01:51:01.968Z,0.00
2023-02-06T01:52:02.280Z,0.00
2023-02-06T01:53:02.662Z,0.00
2023-02-06T01:54:03.015Z,0.00
2023-02-06T01:55:03.375Z,0.00
2023-02-06T01:56:03.749Z,0.00
2023-02-06T01:57:04.104Z,0.00
2023-02-06T01:58:04.458Z,0.00
2023-02-06T01:59:04.814Z,0.00
2023-02-06T02:00:05.169Z,0.00
2023-02-06T02:01:05.623Z,0.00
2023-02-06T02:02:05.903Z,0.00
2023-02-06T02:03:06.254Z,0.00
2023-02-06T02:04:06.663Z,0.00
2023-02-06T02:05:06.970Z,0.00
2023-02-06T02:06:07.389Z,0.00
2023-02-06T02:07:07.743Z,0.00
2023-02-06T02:08:08.103Z,0.00
2023-02-06T02:09:08.515Z,0.00
2023-02-06T02:10:08.859Z,0.00
2023-02-06T02:11:09.228Z,0.00
2023-02-06T02:12:09.577Z,0.00
2023-02-06T02:13:09.944Z,0.00
2023-02-06T02:14:10.305Z,0.00
2023-02-06T02:15:10.658Z,0.00
2023-02-06T02:16:11.100Z,0.00
2023-02-06T02:17:11.408Z,0.00
2023-02-06T02:18:11.771Z,0.00
2023-02-06T02:19:12.139Z,0.00
2023-02-06T02:20:12.492Z,0.00
2023-02-06T02:21:12.882Z,0.00
2023-02-06T02:22:13.230Z,0.00
2023-02-06T02:23:13.592Z,0.00
2023-02-06T02:24:13.952Z,0.00
2023-02-06T02:25:14.332Z,0.00
2023-02-06T02:26:14.698Z,0.00
2023-02-06T02:27:15.055Z,0.00
2023-02-06T02:28:15.458Z,0.00
2023-02-06T02:29:15.781Z,0.00
2023-02-06T02:30:16.138Z,0.00
2023-02-06T02:31:16.527Z,0.00
2023-02-06T02:32:16.881Z,0.00
2023-02-06T02:33:17.237Z,0.00
2023-02-06T02:34:17.577Z,0.00
2023-02-06T02:35:17.952Z,0.00
2023-02-06T02:36:18.323Z,0.00
2023-02-06T02:37:18.640Z,0.00
2023-02-06T02:38:19.019Z,0.00
2023-02-06T02:39:19.369Z,0.00
2023-02-06T02:40:19.726Z,0.00
2023-02-06T02:41:20.121Z,0.00
2023-02-06T02:42:20.437Z,0.00
2023-02-06T02:43:20.874Z,0.00
2023-02-06T02:44:21.177Z,0.00
2023-02-06T02:45:21.557Z,0.00
2023-02-06T02:46:21.927Z,0.00
2023-02-06T02:47:22.265Z,0.00
2023-02-06T02:48:22.619Z,0.00
2023-02-06T02:49:22.967Z,0.00
2023-02-06T02:50:23.325Z,0.00
2023-02-06T02:51:23.700Z,0.00
2023-02-06T02:52:24.056Z,0.00
2023-02-06T02:53:24.408Z,0.00
2023-02-06T02:54:24.774Z,0.00
2023-02-06T02:55:25.136Z,0.00
2023-02-06T02:56:25.523Z,0.00
2023-02-06T02:57:25.872Z,0.00
2023-02-06T02:58:26.248Z,0.00
2023-02-06T02:59:26.609Z,0.00
2023-02-06T03:00:26.967Z,0.00
2023-02-06T03:01:27.345Z,0.00
2023-02-06T03:02:27.716Z,0.00
2023-02-06T03:03:28.058Z,0.00
2023-02-06T03:04:28.400Z,0.00
2023-02-06T03:05:28.780Z,0.00
2023-02-06T03:06:29.159Z,0.00
2023-02-06T03:07:29.518Z,0.00
2023-02-06T03:08:29.872Z,0.00
2023-02-06T03:09:30.230Z,0.00
2023-02-06T03:10:30.596Z,0.00
2023-02-06T03:11:30.978Z,0.00
2023-02-06T03:12:31.342Z,0.00
2023-02-06T03:13:31.706Z,0.00
2023-02-06T03:14:32.078Z,0.00
2023-02-06T03:15:32.432Z,0.00
2023-02-06T03:16:32.864Z,0.00
2023-02-06T03:17:33.170Z,0.00
2023-02-06T03:18:33.544Z,0.00
2023-02-06T03:19:33.897Z,0.00
2023-02-06T03:20:34.323Z,0.00
2023-02-06T03:21:34.632Z,0.00
2023-02-06T03:22:34.955Z,0.00
2023-02-06T03:23:37.495Z,0.00
2023-02-06T03:24:35.684Z,0.00
2023-02-06T03:25:36.405Z,0.00
2023-02-06T03:26:36.433Z,0.00
2023-02-06T03:27:36.751Z,0.00
2023-02-06T03:28:37.102Z,0.00
2023-02-06T03:29:37.464Z,0.00
2023-02-06T03:30:37.835Z,0.00
2023-02-06T03:31:38.247Z,0.00
2023-02-06T03:32:38.599Z,0.00
2023-02-06T03:33:38.916Z,0.00
2023-02-06T03:34:39.272Z,0.00
2023-02-06T03:35:39.615Z,0.00
2023-02-06T03:36:40.050Z,0.00
2023-02-06T03:37:40.384Z,0.00
2023-02-06T03:38:40.701Z,0.00
2023-02-06T03:39:41.068Z,0.00
2023-02-06T03:40:41.429Z,0.00
2023-02-06T03:41:41.811Z,0.00
2023-02-06T03:42:42.194Z,0.00
2023-02-06T03:43:42.520Z,0.00
2023-02-06T03:44:42.874Z,0.00
2023-02-06T03:45:43.265Z,0.00
2023-02-06T03:46:43.620Z,0.00
2023-02-06T03:47:43.939Z,0.00
2023-02-06T03:48:44.305Z,0.00
2023-02-06T03:49:44.672Z,0.00
2023-02-06T03:50:45.021Z,0.00
2023-02-06T03:51:45.414Z,0.00
2023-02-06T03:52:45.758Z,0.00
2023-02-06T03:53:46.121Z,0.00
2023-02-06T03:54:46.466Z,0.00
2023-02-06T03:55:46.836Z,0.00
2023-02-06T03:56:47.225Z,0.00
2023-02-06T03:57:47.562Z,0.00
2023-02-06T03:58:47.930Z,0.00
2023-02-06T03:59:48.297Z,0.00
2023-02-06T04:00:48.671Z,0.00
2023-02-06T04:01:49.051Z,0.00
2023-02-06T04:02:49.416Z,0.00
2023-02-06T04:03:49.749Z,0.00
2023-02-06T04:04:50.103Z,0.00
2023-02-06T04:05:50.467Z,0.00
2023-02-06T04:06:50.819Z,0.00
2023-02-06T04:07:51.155Z,0.00
2023-02-06T04:08:51.514Z,0.00
2023-02-06T04:09:51.878Z,0.00
2023-02-06T04:10:52.233Z,0.00
2023-02-06T04:11:52.655Z,0.00
2023-02-06T04:12:52.941Z,0.00
2023-02-06T04:13:53.298Z,0.00
2023-02-06T04:14:53.660Z,0.00
2023-02-06T04:15:54.006Z,0.00
2023-02-06T04:16:54.378Z,0.00
2023-02-06T04:18:00.659Z,0.00
2023-02-06T04:18:55.063Z,0.00
2023-02-06T04:19:55.421Z,0.00
2023-02-06T04:20:55.779Z,0.00
2023-02-06T04:21:56.155Z,0.00
2023-02-06T04:22:56.515Z,0.00
2023-02-06T04:23:56.913Z,0.00
2023-02-06T04:24:57.237Z,0.00
2023-02-06T04:25:57.604Z,0.00
2023-02-06T04:26:57.988Z,0.00
2023-02-06T04:27:58.381Z,0.00
2023-02-06T04:28:58.697Z,0.00
2023-02-06T04:29:59.074Z,0.00
2023-02-06T04:30:59.691Z,0.00
2023-02-06T04:31:59.783Z,0.00
2023-02-06T04:33:00.134Z,0.00
2023-02-06T04:34:00.496Z,0.00
2023-02-06T04:35:00.853Z,0.00
2023-02-06T04:36:01.208Z,0.00
2023-02-06T04:37:01.621Z,0.00
2023-02-06T04:38:01.934Z,0.00
2023-02-06T04:39:02.312Z,0.00
2023-02-06T04:40:02.657Z,0.00
2023-02-06T04:41:03.020Z,0.00
2023-02-06T04:42:03.396Z,0.00
2023-02-06T04:43:03.755Z,0.00
2023-02-06T04:44:04.116Z,0.00
2023-02-06T04:45:04.472Z,0.00
2023-02-06T04:46:04.845Z,0.00
2023-02-06T04:47:05.205Z,0.00
2023-02-06T04:48:05.545Z,0.00
2023-02-06T04:49:05.897Z,0.00
2023-02-06T04:50:06.276Z,0.00
2023-02-06T04:51:06.612Z,0.00
2023-02-06T04:52:06.992Z,0.00
2023-02-06T04:53:07.374Z,0.00
2023-02-06T04:54:07.686Z,0.00
2023-02-06T04:55:08.052Z,0.00
2023-02-06T04:56:08.405Z,0.00
2023-02-06T04:57:08.808Z,0.00
2023-02-06T04:58:09.121Z,0.00
2023-02-06T04:59:09.500Z,0.00
2023-02-06T05:00:09.847Z,0.00
2023-02-06T05:01:10.258Z,0.00
2023-02-06T05:02:10.578Z,0.00
2023-02-06T05:03:10.920Z,0.00
2023-02-06T05:04:11.294Z,0.00
2023-02-06T05:05:11.664Z,0.00
2023-02-06T05:06:12.003Z,0.00
2023-02-06T05:07:12.380Z,0.00
2023-02-06T05:08:12.757Z,0.00
2023-02-06T05:09:13.122Z,0.00
2023-02-06T05:10:13.484Z,0.00
2023-02-06T05:11:13.861Z,0.00
2023-02-06T05:12:14.411Z,0.00
2023-02-06T05:13:14.612Z,0.00
2023-02-06T05:14:14.957Z,0.00
2023-02-06T05:15:15.321Z,0.00
2023-02-06T05:16:15.706Z,0.00
2023-02-06T05:17:16.057Z,0.00
2023-02-06T05:18:16.417Z,0.00
2023-02-06T05:19:16.771Z,0.00
2023-02-06T05:20:17.179Z,0.00
2023-02-06T05:21:17.516Z,0.00
2023-02-06T05:22:17.883Z,0.00
2023-02-06T05:23:18.243Z,0.00
2023-02-06T05:24:18.608Z,0.00
2023-02-06T05:25:18.978Z,0.00
2023-02-06T05:26:19.349Z,0.00
2023-02-06T05:27:19.748Z,0.00
2023-02-06T05:28:20.092Z,0.00
2023-02-06T05:29:20.404Z,0.00
2023-02-06T05:30:20.763Z,0.00
2023-02-06T05:31:21.382Z,0.00
2023-02-06T05:32:21.517Z,0.00
2023-02-06T05:33:21.867Z,0.00
2023-02-06T05:34:22.241Z,0.00
2023-02-06T05:35:22.586Z,0.00
2023-02-06T05:36:22.949Z,0.00
2023-02-06T05:37:23.346Z,0.00
2023-02-06T05:38:23.674Z,0.00
2023-02-06T05:39:24.025Z,0.00
2023-02-06T05:40:24.402Z,0.00
2023-02-06T05:41:24.766Z,0.00
2023-02-06T05:42:25.142Z,0.00
2023-02-06T05:43:25.502Z,0.00
2023-02-06T05:44:25.871Z,0.00
2023-02-06T05:45:26.232Z,0.00
2023-02-06T05:46:26.614Z,0.00
2023-02-06T05:47:26.944Z,0.00
2023-02-06T05:48:27.276Z,0.00
2023-02-06T05:49:27.606Z,0.00
2023-02-06T05:50:27.991Z,0.00
2023-02-06T05:51:28.347Z,0.00
2023-02-06T05:52:28.678Z,0.00
2023-02-06T05:53:29.041Z,0.00
2023-02-06T05:54:29.417Z,0.00
2023-02-06T05:55:29.720Z,0.00
2023-02-06T05:56:30.078Z,0.00
2023-02-06T05:57:30.403Z,0.00
2023-02-06T05:58:30.729Z,0.00
2023-02-06T05:59:31.069Z,0.00
2023-02-06T06:00:31.426Z,0.00
2023-02-06T06:01:31.730Z,0.00
2023-02-06T06:02:32.100Z,0.00
2023-02-06T06:03:33.503Z,0.00
2023-02-06T06:04:32.898Z,0.00
2023-02-06T06:05:33.171Z,0.00
2023-02-06T06:06:33.523Z,0.00
2023-02-06T06:07:33.917Z,0.00
2023-02-06T06:08:34.275Z,0.00
2023-02-06T06:09:34.627Z,0.00
2023-02-06T06:10:35.004Z,0.00
2023-02-06T06:11:35.332Z,0.00
2023-02-06T06:12:35.712Z,0.00
2023-02-06T06:13:36.135Z,0.00
2023-02-06T06:14:36.400Z,0.00
2023-02-06T06:15:37.034Z,0.00
2023-02-06T06:16:37.084Z,0.00
2023-02-06T06:17:37.471Z,0.00
2023-02-06T06:18:37.806Z,0.00
2023-02-06T06:19:38.147Z,0.00
2023-02-06T06:20:38.499Z,0.00
2023-02-06T06:21:38.980Z,0.00
2023-02-06T06:22:39.234Z,0.00
2023-02-06T06:23:39.588Z,0.00
2023-02-06T06:24:39.970Z,0.00
2023-02-06T06:25:40.297Z,0.00
2023-02-06T06:26:40.670Z,0.00
2023-02-06T06:27:41.047Z,0.00
2023-02-06T06:28:41.416Z,0.00
2023-02-06T06:29:41.732Z,0.00
2023-02-06T06:30:42.188Z,0.00
2023-02-06T06:31:42.507Z,0.00
2023-02-06T06:32:42.859Z,0.00
2023-02-06T06:33:43.198Z,0.00
2023-02-06T06:34:43.595Z,0.00
2023-02-06T06:35:43.951Z,0.00
2023-02-06T06:36:44.296Z,0.00
2023-02-06T06:37:44.576Z,1.00
2023-02-06T06:38:44.716Z,1.00
2023-02-06T06:39:45.145Z,0.00
2023-02-06T06:40:45.503Z,0.00
2023-02-06T06:41:45.895Z,0.00
2023-02-06T06:42:46.266Z,0.00
2023-02-06T06:43:46.355Z,1.00
2023-02-06T06:44:46.524Z,1.00
2023-02-06T06:45:46.712Z,1.00
2023-02-06T06:46:47.157Z,0.00
2023-02-06T06:47:47.389Z,2.00
2023-02-06T06:48:47.559Z,3.00
2023-02-06T06:49:47.731Z,3.00
2023-02-06T06:50:48.013Z,3.00
2023-02-06T06:51:48.208Z,3.00
2023-02-06T06:52:48.456Z,1.00
2023-02-06T06:53:48.527Z,1.00
2023-02-06T06:54:50.009Z,2.00
2023-02-06T06:55:48.870Z,2.00
2023-02-06T06:56:49.051Z,4.00
2023-02-06T06:57:49.226Z,1.00
2023-02-06T06:58:49.378Z,5.00
2023-02-06T06:59:49.700Z,1.00
2023-02-06T07:00:49.865Z,4.00
2023-02-06T07:01:50.035Z,6.00
2023-02-06T07:02:50.266Z,12.00
2023-02-06T07:03:50.366Z,4.00
2023-02-06T07:04:50.659Z,6.00
2023-02-06T07:05:53.134Z,9.00
2023-02-06T07:06:50.983Z,7.00
2023-02-06T07:07:51.171Z,11.00
2023-02-06T07:08:51.340Z,4.00
2023-02-06T07:09:51.518Z,13.00
2023-02-06T07:10:51.693Z,12.00
2023-02-06T07:11:51.887Z,13.00
2023-02-06T07:12:52.072Z,11.00
2023-02-06T07:13:52.244Z,9.00
2023-02-06T07:14:52.402Z,7.00
2023-02-06T07:15:52.586Z,14.00
2023-02-06T07:16:52.767Z,14.00
2023-02-06T07:17:53.064Z,13.00
2023-02-06T07:18:53.347Z,18.00
2023-02-06T07:19:53.521Z,14.00
2023-02-06T07:20:53.720Z,12.00
2023-02-06T07:21:54.009Z,19.00
2023-02-06T07:22:54.190Z,16.00
2023-02-06T07:23:54.373Z,22.00
2023-02-06T07:24:54.644Z,22.00
2023-02-06T07:25:54.708Z,23.00
2023-02-06T07:26:54.992Z,24.00
2023-02-06T07:27:55.206Z,23.00
2023-02-06T07:28:55.470Z,21.00
2023-02-06T07:29:55.665Z,16.00
2023-02-06T07:30:55.841Z,19.00
2023-02-06T07:31:56.136Z,19.00
2023-02-06T07:32:56.411Z,21.00
2023-02-06T07:33:56.674Z,21.00
2023-02-06T07:34:56.966Z,21.00
2023-02-06T07:35:57.145Z,23.00
2023-02-06T07:36:57.321Z,25.00
2023-02-06T07:37:57.648Z,26.00
2023-02-06T07:38:57.773Z,31.00
2023-02-06T07:39:58.081Z,30.00
2023-02-06T07:40:58.248Z,28.00
2023-02-06T07:41:58.562Z,30.00
2023-02-06T07:42:58.840Z,31.00
2023-02-06T07:43:59.022Z,30.00
2023-02-06T07:44:59.297Z,35.00
2023-02-06T07:45:59.541Z,39.00
2023-02-06T07:46:59.763Z,31.00
2023-02-06T07:48:00.066Z,33.00
2023-02-06T07:49:00.326Z,36.00
2023-02-06T07:50:00.519Z,39.00
2023-02-06T07:51:00.797Z,35.00
2023-02-06T07:52:00.972Z,37.00
2023-02-06T07:53:01.283Z,33.00
2023-02-06T07:54:01.570Z,37.00
2023-02-06T07:55:01.859Z,36.00
2023-02-06T07:56:02.083Z,39.00
2023-02-06T07:57:02.334Z,35.00
2023-02-06T07:58:02.492Z,43.00
2023-02-06T07:59:02.660Z,41.00
2023-02-06T08:00:02.949Z,41.00
2023-02-06T08:01:03.241Z,40.00
2023-02-06T08:02:03.396Z,39.00
2023-02-06T08:03:03.688Z,36.00
2023-02-06T08:04:04.007Z,35.00
2023-02-06T08:05:04.129Z,32.00
2023-02-06T08:06:04.422Z,28.00
2023-02-06T08:07:04.617Z,40.00
2023-02-06T08:08:04.788Z,37.00
2023-02-06T08:09:04.935Z,32.00
2023-02-06T08:10:05.094Z,37.00
2023-02-06T08:11:05.258Z,41.00
2023-02-06T08:12:05.553Z,41.00
2023-02-06T08:13:05.775Z,36.00
2023-02-06T08:14:05.892Z,39.00
2023-02-06T08:15:06.075Z,42.00
2023-02-06T08:16:06.366Z,38.00
2023-02-06T08:17:06.515Z,48.00
2023-02-06T08:18:06.694Z,54.00
2023-02-06T08:19:06.967Z,49.00
2023-02-06T08:20:07.143Z,45.00
2023-02-06T08:21:07.435Z,54.00
2023-02-06T08:22:07.723Z,53.00
2023-02-06T08:23:07.915Z,55.00
2023-02-06T08:24:08.049Z,57.00
2023-02-06T08:25:08.348Z,59.00
2023-02-06T08:26:08.528Z,57.00
2023-02-06T08:27:08.820Z,53.00
2023-02-06T08:28:09.072Z,64.00
2023-02-06T08:29:09.287Z,61.00
2023-02-06T08:30:09.506Z,62.00
2023-02-06T08:31:09.866Z,62.00
2023-02-06T08:32:10.080Z,63.00
2023-02-06T08:33:10.229Z,66.00
2023-02-06T08:34:10.380Z,61.00
2023-02-06T08:35:10.589Z,59.00
2023-02-06T08:36:10.715Z,60.00
2023-02-06T08:37:11.018Z,61.00
2023-02-06T08:38:11.226Z,57.00
2023-02-06T08:39:11.477Z,53.00
2023-02-06T08:40:11.782Z,53.00
2023-02-06T08:41:12.109Z,53.00
2023-02-06T08:42:12.228Z,47.00
2023-02-06T08:43:12.553Z,45.00
2023-02-06T08:44:12.832Z,45.00
2023-02-06T08:45:12.990Z,51.00
2023-02-06T08:46:13.211Z,55.00
2023-02-06T08:47:13.447Z,57.00
2023-02-06T08:48:13.633Z,57.00
2023-02-06T08:49:13.760Z,64.00
2023-02-06T08:50:14.074Z,65.00
2023-02-06T08:51:14.243Z,68.00
2023-02-06T08:52:14.531Z,73.00
2023-02-06T08:53:14.719Z,78.00
2023-02-06T08:54:14.998Z,74.00
2023-02-06T08:55:15.169Z,75.00
2023-02-06T08:56:15.321Z,76.00
2023-02-06T08:57:15.615Z,74.00
2023-02-06T08:58:15.928Z,74.00
2023-02-06T08:59:16.081Z,76.00
2023-02-06T09:00:16.378Z,76.00
2023-02-06T09:01:16.702Z,78.00
2023-02-06T09:02:16.757Z,77.00
2023-02-06T09:03:17.034Z,90.00
2023-02-06T09:04:17.315Z,93.00
2023-02-06T09:05:17.495Z,93.00
2023-02-06T09:06:17.671Z,94.00
2023-02-06T09:07:17.817Z,96.00
2023-02-06T09:08:18.004Z,101.00
2023-02-06T09:09:18.162Z,103.00
2023-02-06T09:10:27.074Z,108.00
2023-02-06T09:11:18.521Z,112.00
2023-02-06T09:12:18.795Z,116.00
2023-02-06T09:13:18.992Z,121.00
2023-02-06T09:14:19.175Z,122.00
2023-02-06T09:15:19.483Z,121.00
2023-02-06T09:16:19.893Z,109.00
2023-02-06T09:17:20.052Z,112.00
2023-02-06T09:18:20.360Z,105.00
2023-02-06T09:19:20.648Z,113.00
2023-02-06T09:20:20.824Z,115.00
2023-02-06T09:21:21.023Z,113.00
2023-02-06T09:22:21.326Z,120.00
2023-02-06T09:23:21.485Z,119.00
2023-02-06T09:24:21.650Z,123.00
2023-02-06T09:25:21.826Z,128.00
2023-02-06T09:26:22.129Z,136.00
2023-02-06T09:27:22.420Z,143.00
2023-02-06T09:28:22.843Z,143.00
2023-02-06T09:29:23.001Z,142.00
2023-02-06T09:30:23.283Z,147.00
2023-02-06T09:31:23.422Z,152.00
2023-02-06T09:32:23.670Z,162.00
2023-02-06T09:33:23.874Z,161.00
2023-02-06T09:34:24.037Z,163.00
2023-02-06T09:35:24.337Z,162.00
2023-02-06T09:36:24.544Z,163.00
2023-02-06T09:37:24.805Z,159.00
2023-02-06T09:38:25.028Z,159.00
2023-02-06T09:39:25.203Z,165.00
2023-02-06T09:40:25.442Z,168.00
2023-02-06T09:41:25.632Z,173.00
2023-02-06T09:42:25.816Z,168.00
2023-02-06T09:43:26.134Z,166.00
2023-02-06T09:44:26.396Z,158.00
2023-02-06T09:45:26.698Z,152.00
2023-02-06T09:46:27.033Z,158.00
2023-02-06T09:47:27.163Z,159.00
2023-02-06T09:48:27.466Z,166.00
2023-02-06T09:49:27.656Z,179.00
2023-02-06T09:50:27.914Z,184.00
2023-02-06T09:51:28.210Z,182.00
2023-02-06T09:52:28.526Z,163.00
2023-02-06T09:53:29.496Z,165.00
2023-02-06T09:54:28.976Z,174.00
2023-02-06T09:55:29.264Z,173.00
2023-02-06T09:56:29.447Z,163.00
2023-02-06T09:57:29.758Z,164.00
2023-02-06T09:58:30.048Z,162.00
2023-02-06T09:59:30.326Z,165.00
2023-02-06T10:00:30.633Z,168.00
2023-02-06T10:01:30.955Z,168.00
2023-02-06T10:02:31.198Z,155.00
2023-02-06T10:03:31.511Z,151.00
2023-02-06T10:04:31.856Z,152.00
2023-02-06T10:05:32.073Z,159.00
2023-02-06T10:06:32.365Z,163.00
2023-02-06T10:07:32.658Z,159.00
2023-02-06T10:08:34.480Z,151.00
2023-02-06T10:09:33.118Z,149.00
2023-02-06T10:10:33.421Z,150.00
2023-02-06T10:11:33.588Z,157.00
2023-02-06T10:12:33.779Z,153.00
2023-02-06T10:13:34.095Z,168.00
2023-02-06T10:14:34.376Z,178.00
2023-02-06T10:15:35.123Z,193.00
2023-02-06T10:16:34.938Z,203.00
2023-02-06T10:17:35.090Z,200.00
2023-02-06T10:18:35.237Z,195.00
2023-02-06T10:19:35.406Z,202.00
2023-02-06T10:20:35.699Z,196.00
2023-02-06T10:21:36.010Z,199.00
2023-02-06T10:22:36.179Z,207.00
2023-02-06T10:23:36.387Z,212.00
2023-02-06T10:24:36.649Z,187.00
2023-02-06T10:25:37.297Z,176.00
2023-02-06T10:26:37.231Z,177.00
2023-02-06T10:27:37.417Z,175.00
2023-02-06T10:28:37.601Z,170.00
2023-02-06T10:29:37.887Z,162.00
2023-02-06T10:30:38.192Z,163.00
2023-02-06T10:31:38.417Z,168.00
2023-02-06T10:32:38.550Z,178.00
2023-02-06T10:33:38.855Z,180.00
2023-02-06T10:34:39.149Z,188.00
2023-02-06T10:35:39.676Z,174.00
2023-02-06T10:36:39.735Z,197.00
2023-02-06T10:37:39.888Z,206.00
2023-02-06T10:38:40.113Z,212.00
2023-02-06T10:39:40.254Z,207.00
2023-02-06T10:40:40.551Z,172.00
2023-02-06T10:41:40.739Z,170.00
2023-02-06T10:42:41.031Z,164.00
2023-02-06T10:43:41.428Z,153.00
2023-02-06T10:44:48.477Z,159.00
2023-02-06T10:45:41.685Z,166.00
2023-02-06T10:46:41.904Z,162.00
2023-02-06T10:47:42.155Z,172.00
2023-02-06T10:48:42.450Z,173.00
2023-02-06T10:49:42.739Z,201.00
2023-02-06T10:50:42.910Z,237.00
2023-02-06T10:51:43.202Z,237.00
2023-02-06T10:52:43.499Z,241.00
2023-02-06T10:53:43.699Z,204.00
2023-02-06T10:54:43.966Z,192.00
2023-02-06T10:55:45.251Z,198.00
2023-02-06T10:56:44.481Z,204.00
2023-02-06T10:57:44.617Z,239.00
2023-02-06T10:58:44.951Z,225.00
2023-02-06T10:59:45.225Z,225.00
2023-02-06T11:00:45.474Z,194.00
2023-02-06T11:01:45.664Z,176.00
2023-02-06T11:02:48.985Z,169.00
2023-02-06T11:03:45.948Z,183.00
2023-02-06T11:04:46.269Z,188.00
2023-02-06T11:05:46.534Z,223.00
2023-02-06T11:06:46.838Z,297.00
2023-02-06T11:07:47.001Z,228.00
2023-02-06T11:08:47.312Z,181.00
2023-02-06T11:09:47.579Z,165.00
2023-02-06T11:10:47.876Z,157.00
2023-02-06T11:11:48.652Z,162.00
2023-02-06T11:12:48.351Z,162.00
2023-02-06T11:13:48.674Z,167.00
2023-02-06T11:14:48.941Z,200.00
2023-02-06T11:15:49.118Z,211.00
2023-02-06T11:16:49.312Z,211.00
2023-02-06T11:17:49.489Z,226.00
2023-02-06T11:18:49.693Z,220.00
2023-02-06T11:19:49.966Z,217.00
2023-02-06T11:20:50.175Z,197.00
2023-02-06T11:21:50.321Z,188.00
2023-02-06T11:22:52.986Z,162.00
2023-02-06T11:23:50.932Z,157.00
2023-02-06T11:24:51.196Z,160.00
2023-02-06T11:25:51.484Z,148.00
2023-02-06T11:26:51.779Z,149.00
2023-02-06T11:27:51.992Z,155.00
2023-02-06T11:28:52.175Z,158.00
2023-02-06T11:29:52.452Z,165.00
2023-02-06T11:30:52.669Z,166.00
2023-02-06T11:31:52.832Z,168.00
2023-02-06T11:33:03.960Z,169.00
2023-02-06T11:33:53.292Z,166.00
2023-02-06T11:34:53.470Z,178.00
2023-02-06T11:35:53.740Z,185.00
2023-02-06T11:36:53.916Z,193.00
2023-02-06T11:37:54.099Z,189.00
2023-02-06T11:38:54.417Z,174.00
2023-02-06T11:39:54.558Z,174.00
2023-02-06T11:40:54.848Z,168.00
2023-02-06T11:41:55.152Z,168.00
2023-02-06T11:42:55.330Z,184.00
2023-02-06T11:43:55.640Z,188.00
2023-02-06T11:44:55.798Z,184.00
2023-02-06T11:45:56.142Z,180.00
2023-02-06T11:46:56.382Z,189.00
2023-02-06T11:47:56.683Z,192.00
2023-02-06T11:48:56.997Z,193.00
2023-02-06T11:49:57.269Z,220.00
2023-02-06T11:50:57.554Z,255.00
2023-02-06T11:51:57.868Z,249.00
2023-02-06T11:52:58.150Z,274.00
2023-02-06T11:53:58.345Z,298.00
2023-02-06T11:54:58.499Z,292.00
2023-02-06T11:55:58.694Z,275.00
2023-02-06T11:56:58.888Z,266.00
2023-02-06T11:57:59.214Z,268.00
2023-02-06T11:58:59.367Z,263.00
2023-02-06T11:59:59.633Z,253.00
2023-02-06T12:00:59.824Z,244.00
2023-02-06T12:02:00.176Z,240.00
2023-02-06T12:03:00.284Z,228.00
2023-02-06T12:04:00.625Z,238.00
2023-02-06T12:05:00.871Z,252.00
2023-02-06T12:06:03.044Z,246.00
2023-02-06T12:07:01.439Z,253.00
2023-02-06T12:08:01.744Z,212.00
2023-02-06T12:09:02.063Z,202.00
2023-02-06T12:10:02.213Z,227.00
2023-02-06T12:11:02.505Z,257.00
2023-02-06T12:12:02.828Z,286.00
2023-02-06T12:13:02.980Z,368.00
2023-02-06T12:14:03.297Z,488.00
2023-02-06T12:15:23.573Z,449.00
2023-02-06T12:16:03.659Z,325.00
2023-02-06T12:17:03.847Z,236.00
2023-02-06T12:18:04.016Z,191.00
2023-02-06T12:19:04.212Z,174.00
2023-02-06T12:20:04.491Z,183.00
2023-02-06T12:21:04.768Z,193.00
2023-02-06T12:22:05.035Z,194.00
2023-02-06T12:23:05.243Z,226.00
2023-02-06T12:24:05.574Z,279.00
2023-02-06T12:25:05.850Z,328.00
2023-02-06T12:26:06.156Z,406.00
2023-02-06T12:27:06.448Z,322.00
2023-02-06T12:28:06.794Z,281.00
2023-02-06T12:29:06.918Z,251.00
2023-02-06T12:30:07.198Z,245.00
2023-02-06T12:31:07.560Z,247.00
2023-02-06T12:32:07.794Z,239.00
2023-02-06T12:33:07.967Z,252.00
2023-02-06T12:34:08.155Z,280.00
2023-02-06T12:35:08.448Z,295.00
2023-02-06T12:36:08.625Z,405.00
2023-02-06T12:37:08.920Z,308.00
2023-02-06T12:38:09.129Z,346.00
2023-02-06T12:39:09.417Z,261.00
2023-02-06T12:40:09.567Z,264.00
2023-02-06T12:41:09.852Z,283.00
2023-02-06T12:42:10.025Z,242.00
2023-02-06T12:43:10.235Z,229.00
2023-02-06T12:44:10.537Z,208.00
2023-02-06T12:45:10.678Z,196.00
2023-02-06T12:46:11.018Z,221.00
2023-02-06T12:47:11.166Z,266.00
2023-02-06T12:48:12.368Z,316.00
2023-02-06T12:49:11.660Z,532.00
2023-02-06T12:50:11.824Z,871.00
2023-02-06T12:51:12.039Z,1075.00
2023-02-06T12:52:12.304Z,731.00
2023-02-06T12:53:12.595Z,562.00
2023-02-06T12:54:12.794Z,352.00
2023-02-06T12:55:13.071Z,625.00
2023-02-06T12:56:13.371Z,707.00
2023-02-06T12:57:13.557Z,909.00
2023-02-06T12:58:13.736Z,1005.00
2023-02-06T12:59:13.916Z,1006.00
2023-02-06T13:00:14.241Z,994.00
2023-02-06T13:01:26.819Z,989.00
2023-02-06T13:02:14.763Z,961.00